sensor_id;sensor_type;location;lat;lon;timestamp;P1;durP1;ratioP1;P2;durP2;ratioP2
16577;SDS011;8401;52.528;13.340;2022-12-16T00:01:12;43.90;;;23.30;;
16577;SDS011;8401;52.528;13.340;2022-12-16T00:03:41;39.93;;;23.53;;
16577;SDS011;8401;52.528;13.340;2022-12-16T00:06:11;43.07;;;23.60;;
16577;SDS011;8401;52.528;13.340;2022-12-16T00:08:37;44.53;;;24.30;;
16577;SDS011;8401;52.528;13.340;2022-12-16T00:11:04;42.97;;;23.83;;
16577;SDS011;8401;52.528;13.340;2022-12-16T00:13:31;40.87;;;23.40;;
16577;SDS011;8401;52.528;13.340;2022-12-16T00:15:57;42.70;;;23.23;;
16577;SDS011;8401;52.528;13.340;2022-12-16T00:18:24;43.43;;;24.30;;
16577;SDS011;8401;52.528;13.340;2022-12-16T00:20:53;43.83;;;24.63;;
16577;SDS011;8401;52.528;13.340;2022-12-16T00:23:19;50.03;;;25.70;;
16577;SDS011;8401;52.528;13.340;2022-12-16T00:25:46;41.23;;;22.47;;
16577;SDS011;8401;52.528;13.340;2022-12-16T00:28:13;47.10;;;24.93;;
16577;SDS011;8401;52.528;13.340;2022-12-16T00:30:40;43.17;;;25.60;;
16577;SDS011;8401;52.528;13.340;2022-12-16T00:33:06;40.80;;;23.17;;
16577;SDS011;8401;52.528;13.340;2022-12-16T00:35:32;46.33;;;25.60;;
16577;SDS011;8401;52.528;13.340;2022-12-16T00:37:58;43.90;;;26.13;;
16577;SDS011;8401;52.528;13.340;2022-12-16T00:40:24;44.27;;;25.07;;
16577;SDS011;8401;52.528;13.340;2022-12-16T00:42:50;43.83;;;25.50;;
16577;SDS011;8401;52.528;13.340;2022-12-16T00:45:16;43.60;;;24.73;;
16577;SDS011;8401;52.528;13.340;2022-12-16T00:47:42;48.40;;;24.03;;
16577;SDS011;8401;52.528;13.340;2022-12-16T00:50:07;44.67;;;23.90;;
16577;SDS011;8401;52.528;13.340;2022-12-16T00:52:35;45.10;;;23.37;;
16577;SDS011;8401;52.528;13.340;2022-12-16T00:55:00;41.73;;;22.70;;
16577;SDS011;8401;52.528;13.340;2022-12-16T00:57:26;36.23;;;21.17;;
16577;SDS011;8401;52.528;13.340;2022-12-16T00:59:52;39.77;;;22.67;;
16577;SDS011;8401;52.528;13.340;2022-12-16T01:02:18;41.80;;;23.30;;
16577;SDS011;8401;52.528;13.340;2022-12-16T01:04:43;40.70;;;23.57;;
16577;SDS011;8401;52.528;13.340;2022-12-16T01:07:09;43.67;;;23.27;;
16577;SDS011;8401;52.528;13.340;2022-12-16T01:09:35;43.53;;;24.87;;
16577;SDS011;8401;52.528;13.340;2022-12-16T01:12:00;40.23;;;23.80;;
16577;SDS011;8401;52.528;13.340;2022-12-16T01:14:26;43.30;;;25.00;;
16577;SDS011;8401;52.528;13.340;2022-12-16T01:16:52;45.63;;;25.77;;
16577;SDS011;8401;52.528;13.340;2022-12-16T01:19:17;45.80;;;26.23;;
16577;SDS011;8401;52.528;13.340;2022-12-16T01:21:43;44.33;;;25.03;;
16577;SDS011;8401;52.528;13.340;2022-12-16T01:24:09;46.37;;;25.47;;
16577;SDS011;8401;52.528;13.340;2022-12-16T01:26:35;40.43;;;23.40;;
16577;SDS011;8401;52.528;13.340;2022-12-16T01:29:01;47.73;;;25.57;;
16577;SDS011;8401;52.528;13.340;2022-12-16T01:31:27;48.23;;;25.67;;
16577;SDS011;8401;52.528;13.340;2022-12-16T01:33:52;41.87;;;24.43;;
16577;SDS011;8401;52.528;13.340;2022-12-16T01:36:18;47.50;;;25.90;;
16577;SDS011;8401;52.528;13.340;2022-12-16T01:38:44;44.17;;;25.23;;
16577;SDS011;8401;52.528;13.340;2022-12-16T01:41:11;44.90;;;26.17;;
16577;SDS011;8401;52.528;13.340;2022-12-16T01:43:38;43.63;;;23.73;;
16577;SDS011;8401;52.528;13.340;2022-12-16T01:46:07;43.47;;;24.80;;
16577;SDS011;8401;52.528;13.340;2022-12-16T01:51:07;42.17;;;24.03;;
16577;SDS011;8401;52.528;13.340;2022-12-16T01:53:44;45.17;;;25.70;;
16577;SDS011;8401;52.528;13.340;2022-12-16T01:56:12;42.47;;;24.43;;
16577;SDS011;8401;52.528;13.340;2022-12-16T01:58:40;42.37;;;24.53;;
16577;SDS011;8401;52.528;13.340;2022-12-16T02:01:08;44.33;;;24.07;;
16577;SDS011;8401;52.528;13.340;2022-12-16T02:03:34;44.27;;;25.83;;
16577;SDS011;8401;52.528;13.340;2022-12-16T02:06:00;43.30;;;24.50;;
16577;SDS011;8401;52.528;13.340;2022-12-16T02:08:27;42.03;;;25.10;;
16577;SDS011;8401;52.528;13.340;2022-12-16T02:16:57;43.40;;;23.90;;
16577;SDS011;8401;52.528;13.340;2022-12-16T02:34:27;41.47;;;22.80;;
16577;SDS011;8401;52.528;13.340;2022-12-16T02:39:47;41.60;;;23.13;;
16577;SDS011;8401;52.528;13.340;2022-12-16T02:42:30;37.23;;;21.57;;
16577;SDS011;8401;52.528;13.340;2022-12-16T02:45:15;40.13;;;22.50;;
16577;SDS011;8401;52.528;13.340;2022-12-16T02:47:43;39.77;;;22.83;;
16577;SDS011;8401;52.528;13.340;2022-12-16T02:50:17;41.33;;;22.10;;
16577;SDS011;8401;52.528;13.340;2022-12-16T02:52:51;38.03;;;21.70;;
16577;SDS011;8401;52.528;13.340;2022-12-16T02:55:18;40.47;;;20.83;;
16577;SDS011;8401;52.528;13.340;2022-12-16T02:58:22;39.17;;;20.90;;
16577;SDS011;8401;52.528;13.340;2022-12-16T03:03:35;38.20;;;20.73;;
16577;SDS011;8401;52.528;13.340;2022-12-16T03:06:06;39.73;;;20.40;;
16577;SDS011;8401;52.528;13.340;2022-12-16T03:08:35;39.37;;;21.07;;
16577;SDS011;8401;52.528;13.340;2022-12-16T03:11:05;37.77;;;21.57;;
16577;SDS011;8401;52.528;13.340;2022-12-16T03:13:38;38.50;;;21.57;;
16577;SDS011;8401;52.528;13.340;2022-12-16T03:16:17;41.10;;;21.90;;
16577;SDS011;8401;52.528;13.340;2022-12-16T03:18:48;34.60;;;19.97;;
16577;SDS011;8401;52.528;13.340;2022-12-16T03:21:19;36.27;;;19.83;;
16577;SDS011;8401;52.528;13.340;2022-12-16T03:23:47;36.70;;;20.33;;
16577;SDS011;8401;52.528;13.340;2022-12-16T03:26:24;34.57;;;19.57;;
16577;SDS011;8401;52.528;13.340;2022-12-16T03:29:01;33.83;;;19.43;;
16577;SDS011;8401;52.528;13.340;2022-12-16T03:37:12;38.23;;;20.77;;
16577;SDS011;8401;52.528;13.340;2022-12-16T03:39:43;39.37;;;20.30;;
16577;SDS011;8401;52.528;13.340;2022-12-16T03:42:12;36.77;;;20.27;;
16577;SDS011;8401;52.528;13.340;2022-12-16T03:44:39;39.03;;;20.73;;
16577;SDS011;8401;52.528;13.340;2022-12-16T03:47:07;41.63;;;19.83;;
16577;SDS011;8401;52.528;13.340;2022-12-16T03:49:33;35.80;;;20.20;;
16577;SDS011;8401;52.528;13.340;2022-12-16T03:51:59;40.70;;;20.87;;
16577;SDS011;8401;52.528;13.340;2022-12-16T03:54:25;40.37;;;20.27;;
16577;SDS011;8401;52.528;13.340;2022-12-16T03:56:50;39.07;;;21.00;;
16577;SDS011;8401;52.528;13.340;2022-12-16T03:59:16;38.20;;;21.30;;
16577;SDS011;8401;52.528;13.340;2022-12-16T04:01:42;35.73;;;21.53;;
16577;SDS011;8401;52.528;13.340;2022-12-16T04:04:08;37.97;;;21.27;;
16577;SDS011;8401;52.528;13.340;2022-12-16T04:06:34;40.70;;;22.83;;
16577;SDS011;8401;52.528;13.340;2022-12-16T04:09:00;39.93;;;23.17;;
16577;SDS011;8401;52.528;13.340;2022-12-16T04:11:25;38.37;;;21.97;;
16577;SDS011;8401;52.528;13.340;2022-12-16T04:14:10;34.90;;;20.73;;
16577;SDS011;8401;52.528;13.340;2022-12-16T04:16:54;38.77;;;21.67;;
16577;SDS011;8401;52.528;13.340;2022-12-16T04:19:38;34.67;;;19.40;;
16577;SDS011;8401;52.528;13.340;2022-12-16T04:22:25;38.87;;;21.57;;
16577;SDS011;8401;52.528;13.340;2022-12-16T04:25:18;42.27;;;22.67;;
16577;SDS011;8401;52.528;13.340;2022-12-16T04:27:50;37.87;;;21.70;;
16577;SDS011;8401;52.528;13.340;2022-12-16T04:30:17;39.70;;;21.87;;
16577;SDS011;8401;52.528;13.340;2022-12-16T04:32:54;38.17;;;21.23;;
16577;SDS011;8401;52.528;13.340;2022-12-16T04:35:42;43.83;;;22.83;;
16577;SDS011;8401;52.528;13.340;2022-12-16T04:38:27;43.23;;;22.00;;
16577;SDS011;8401;52.528;13.340;2022-12-16T04:41:11;41.23;;;21.60;;
16577;SDS011;8401;52.528;13.340;2022-12-16T04:43:55;38.37;;;21.87;;
16577;SDS011;8401;52.528;13.340;2022-12-16T04:46:39;36.90;;;21.30;;
16577;SDS011;8401;52.528;13.340;2022-12-16T04:49:23;38.07;;;20.73;;
16577;SDS011;8401;52.528;13.340;2022-12-16T04:52:08;41.73;;;21.73;;
16577;SDS011;8401;52.528;13.340;2022-12-16T04:54:52;37.67;;;21.30;;
16577;SDS011;8401;52.528;13.340;2022-12-16T04:57:36;37.97;;;20.57;;
16577;SDS011;8401;52.528;13.340;2022-12-16T05:00:20;42.20;;;22.23;;
16577;SDS011;8401;52.528;13.340;2022-12-16T05:03:04;37.83;;;21.77;;
16577;SDS011;8401;52.528;13.340;2022-12-16T05:05:48;35.00;;;20.87;;
16577;SDS011;8401;52.528;13.340;2022-12-16T05:08:32;37.60;;;20.77;;
16577;SDS011;8401;52.528;13.340;2022-12-16T05:11:16;34.97;;;21.33;;
16577;SDS011;8401;52.528;13.340;2022-12-16T05:14:01;36.43;;;20.53;;
16577;SDS011;8401;52.528;13.340;2022-12-16T05:16:45;44.60;;;21.47;;
16577;SDS011;8401;52.528;13.340;2022-12-16T05:19:29;35.93;;;19.87;;
16577;SDS011;8401;52.528;13.340;2022-12-16T05:22:13;38.13;;;20.60;;
16577;SDS011;8401;52.528;13.340;2022-12-16T05:24:57;32.90;;;19.87;;
16577;SDS011;8401;52.528;13.340;2022-12-16T05:27:41;38.10;;;21.80;;
16577;SDS011;8401;52.528;13.340;2022-12-16T05:30:25;36.60;;;20.27;;
16577;SDS011;8401;52.528;13.340;2022-12-16T05:33:09;35.40;;;19.67;;
16577;SDS011;8401;52.528;13.340;2022-12-16T05:35:54;36.20;;;20.60;;
16577;SDS011;8401;52.528;13.340;2022-12-16T05:38:38;35.10;;;19.70;;
16577;SDS011;8401;52.528;13.340;2022-12-16T05:41:23;36.23;;;20.10;;
16577;SDS011;8401;52.528;13.340;2022-12-16T05:44:07;36.00;;;20.30;;
16577;SDS011;8401;52.528;13.340;2022-12-16T05:46:51;36.00;;;19.60;;
16577;SDS011;8401;52.528;13.340;2022-12-16T05:49:35;36.97;;;21.40;;
16577;SDS011;8401;52.528;13.340;2022-12-16T05:52:19;36.17;;;20.73;;
16577;SDS011;8401;52.528;13.340;2022-12-16T05:55:03;39.93;;;21.07;;
16577;SDS011;8401;52.528;13.340;2022-12-16T05:57:49;37.40;;;21.37;;
16577;SDS011;8401;52.528;13.340;2022-12-16T06:00:33;44.33;;;21.00;;
16577;SDS011;8401;52.528;13.340;2022-12-16T06:03:18;40.70;;;22.03;;
16577;SDS011;8401;52.528;13.340;2022-12-16T06:06:02;39.47;;;22.17;;
16577;SDS011;8401;52.528;13.340;2022-12-16T06:08:46;39.73;;;21.27;;
16577;SDS011;8401;52.528;13.340;2022-12-16T06:11:30;31.90;;;19.10;;
16577;SDS011;8401;52.528;13.340;2022-12-16T06:14:14;40.73;;;21.50;;
16577;SDS011;8401;52.528;13.340;2022-12-16T06:16:58;37.13;;;20.63;;
16577;SDS011;8401;52.528;13.340;2022-12-16T06:19:42;36.47;;;20.53;;
16577;SDS011;8401;52.528;13.340;2022-12-16T06:22:26;35.87;;;20.40;;
16577;SDS011;8401;52.528;13.340;2022-12-16T06:25:10;39.80;;;21.47;;
16577;SDS011;8401;52.528;13.340;2022-12-16T06:27:54;38.07;;;21.53;;
16577;SDS011;8401;52.528;13.340;2022-12-16T06:30:38;36.23;;;21.63;;
16577;SDS011;8401;52.528;13.340;2022-12-16T06:33:22;37.07;;;21.23;;
16577;SDS011;8401;52.528;13.340;2022-12-16T06:36:07;38.80;;;21.40;;
16577;SDS011;8401;52.528;13.340;2022-12-16T06:38:51;38.93;;;20.97;;
16577;SDS011;8401;52.528;13.340;2022-12-16T06:41:35;36.80;;;20.57;;
16577;SDS011;8401;52.528;13.340;2022-12-16T06:44:19;41.07;;;22.23;;
16577;SDS011;8401;52.528;13.340;2022-12-16T06:47:03;42.67;;;21.77;;
16577;SDS011;8401;52.528;13.340;2022-12-16T06:49:47;38.53;;;22.17;;
16577;SDS011;8401;52.528;13.340;2022-12-16T06:52:31;49.17;;;22.70;;
16577;SDS011;8401;52.528;13.340;2022-12-16T06:55:15;45.60;;;22.03;;
16577;SDS011;8401;52.528;13.340;2022-12-16T06:57:59;39.37;;;22.83;;
16577;SDS011;8401;52.528;13.340;2022-12-16T07:00:44;42.10;;;22.83;;
16577;SDS011;8401;52.528;13.340;2022-12-16T07:03:28;39.83;;;22.37;;
16577;SDS011;8401;52.528;13.340;2022-12-16T07:06:13;53.13;;;23.87;;
16577;SDS011;8401;52.528;13.340;2022-12-16T07:08:57;40.33;;;22.90;;
16577;SDS011;8401;52.528;13.340;2022-12-16T07:11:41;45.47;;;22.90;;
16577;SDS011;8401;52.528;13.340;2022-12-16T07:14:25;39.20;;;23.20;;
16577;SDS011;8401;52.528;13.340;2022-12-16T07:17:09;39.73;;;21.40;;
16577;SDS011;8401;52.528;13.340;2022-12-16T07:19:53;42.37;;;24.63;;
16577;SDS011;8401;52.528;13.340;2022-12-16T07:22:41;44.37;;;23.27;;
16577;SDS011;8401;52.528;13.340;2022-12-16T07:25:28;49.10;;;25.93;;
16577;SDS011;8401;52.528;13.340;2022-12-16T07:28:12;40.60;;;24.07;;
16577;SDS011;8401;52.528;13.340;2022-12-16T07:30:56;44.27;;;25.20;;
16577;SDS011;8401;52.528;13.340;2022-12-16T07:33:40;48.90;;;26.47;;
16577;SDS011;8401;52.528;13.340;2022-12-16T07:36:24;48.50;;;25.37;;
16577;SDS011;8401;52.528;13.340;2022-12-16T07:39:08;48.63;;;24.10;;
16577;SDS011;8401;52.528;13.340;2022-12-16T07:41:52;51.40;;;24.77;;
16577;SDS011;8401;52.528;13.340;2022-12-16T07:44:36;42.57;;;23.53;;
16577;SDS011;8401;52.528;13.340;2022-12-16T07:47:20;45.37;;;24.20;;
16577;SDS011;8401;52.528;13.340;2022-12-16T07:50:05;45.37;;;22.90;;
16577;SDS011;8401;52.528;13.340;2022-12-16T07:52:54;48.07;;;25.00;;
16577;SDS011;8401;52.528;13.340;2022-12-16T07:55:38;49.57;;;25.37;;
16577;SDS011;8401;52.528;13.340;2022-12-16T07:58:22;49.53;;;23.53;;
16577;SDS011;8401;52.528;13.340;2022-12-16T08:01:06;47.27;;;25.03;;
16577;SDS011;8401;52.528;13.340;2022-12-16T08:03:51;43.87;;;24.60;;
16577;SDS011;8401;52.528;13.340;2022-12-16T08:06:35;46.57;;;25.53;;
16577;SDS011;8401;52.528;13.340;2022-12-16T08:09:30;54.00;;;25.63;;
16577;SDS011;8401;52.528;13.340;2022-12-16T08:12:14;44.03;;;24.43;;
16577;SDS011;8401;52.528;13.340;2022-12-16T08:14:58;49.67;;;27.20;;
16577;SDS011;8401;52.528;13.340;2022-12-16T08:17:49;50.07;;;27.17;;
16577;SDS011;8401;52.528;13.340;2022-12-16T08:20:34;51.23;;;28.23;;
16577;SDS011;8401;52.528;13.340;2022-12-16T08:23:19;50.17;;;25.73;;
16577;SDS011;8401;52.528;13.340;2022-12-16T08:26:03;47.27;;;23.93;;
16577;SDS011;8401;52.528;13.340;2022-12-16T08:28:48;50.73;;;25.23;;
16577;SDS011;8401;52.528;13.340;2022-12-16T08:31:32;45.13;;;23.50;;
16577;SDS011;8401;52.528;13.340;2022-12-16T08:34:17;49.47;;;25.17;;
16577;SDS011;8401;52.528;13.340;2022-12-16T08:37:01;51.40;;;25.13;;
16577;SDS011;8401;52.528;13.340;2022-12-16T08:39:45;48.10;;;26.07;;
16577;SDS011;8401;52.528;13.340;2022-12-16T08:42:29;46.03;;;25.03;;
16577;SDS011;8401;52.528;13.340;2022-12-16T08:45:14;44.27;;;24.67;;
16577;SDS011;8401;52.528;13.340;2022-12-16T08:47:58;42.63;;;24.43;;
16577;SDS011;8401;52.528;13.340;2022-12-16T08:50:42;43.13;;;23.77;;
16577;SDS011;8401;52.528;13.340;2022-12-16T08:53:26;43.60;;;23.70;;
16577;SDS011;8401;52.528;13.340;2022-12-16T08:56:10;47.50;;;24.67;;
16577;SDS011;8401;52.528;13.340;2022-12-16T08:58:55;50.40;;;25.40;;
16577;SDS011;8401;52.528;13.340;2022-12-16T09:01:39;41.03;;;23.53;;
16577;SDS011;8401;52.528;13.340;2022-12-16T09:04:23;42.83;;;23.03;;
16577;SDS011;8401;52.528;13.340;2022-12-16T09:07:07;45.57;;;23.73;;
16577;SDS011;8401;52.528;13.340;2022-12-16T09:09:51;44.53;;;23.53;;
16577;SDS011;8401;52.528;13.340;2022-12-16T09:12:35;44.97;;;24.40;;
16577;SDS011;8401;52.528;13.340;2022-12-16T09:15:19;44.20;;;22.47;;
16577;SDS011;8401;52.528;13.340;2022-12-16T09:18:03;44.40;;;21.83;;
16577;SDS011;8401;52.528;13.340;2022-12-16T09:20:47;42.73;;;23.00;;
16577;SDS011;8401;52.528;13.340;2022-12-16T09:23:33;37.17;;;22.37;;
16577;SDS011;8401;52.528;13.340;2022-12-16T09:26:17;45.53;;;24.83;;
16577;SDS011;8401;52.528;13.340;2022-12-16T09:29:01;44.43;;;24.17;;
16577;SDS011;8401;52.528;13.340;2022-12-16T09:31:45;48.90;;;25.20;;
16577;SDS011;8401;52.528;13.340;2022-12-16T09:34:29;44.30;;;25.67;;
16577;SDS011;8401;52.528;13.340;2022-12-16T09:37:13;45.07;;;24.87;;
16577;SDS011;8401;52.528;13.340;2022-12-16T09:39:58;49.20;;;24.77;;
16577;SDS011;8401;52.528;13.340;2022-12-16T09:45:36;42.50;;;24.80;;
16577;SDS011;8401;52.528;13.340;2022-12-16T09:48:44;42.73;;;24.97;;
16577;SDS011;8401;52.528;13.340;2022-12-16T09:51:38;47.60;;;24.50;;
16577;SDS011;8401;52.528;13.340;2022-12-16T09:54:25;45.47;;;25.50;;
16577;SDS011;8401;52.528;13.340;2022-12-16T09:57:12;44.13;;;24.50;;
16577;SDS011;8401;52.528;13.340;2022-12-16T09:59:59;45.13;;;25.03;;
16577;SDS011;8401;52.528;13.340;2022-12-16T10:02:48;43.07;;;25.47;;
16577;SDS011;8401;52.528;13.340;2022-12-16T10:05:36;45.97;;;24.67;;
16577;SDS011;8401;52.528;13.340;2022-12-16T10:08:53;43.80;;;24.47;;
16577;SDS011;8401;52.528;13.340;2022-12-16T10:15:28;44.10;;;23.70;;
16577;SDS011;8401;52.528;13.340;2022-12-16T10:21:06;39.80;;;22.60;;
16577;SDS011;8401;52.528;13.340;2022-12-16T10:24:04;43.93;;;23.00;;
16577;SDS011;8401;52.528;13.340;2022-12-16T10:27:13;42.80;;;24.27;;
16577;SDS011;8401;52.528;13.340;2022-12-16T10:29:58;42.53;;;22.87;;
16577;SDS011;8401;52.528;13.340;2022-12-16T10:32:45;45.50;;;24.30;;
16577;SDS011;8401;52.528;13.340;2022-12-16T10:41:20;44.43;;;24.63;;
16577;SDS011;8401;52.528;13.340;2022-12-16T10:44:51;43.83;;;24.40;;
16577;SDS011;8401;52.528;13.340;2022-12-16T10:47:18;44.63;;;24.67;;
16577;SDS011;8401;52.528;13.340;2022-12-16T10:50:02;41.47;;;24.23;;
16577;SDS011;8401;52.528;13.340;2022-12-16T10:55:49;48.93;;;25.33;;
16577;SDS011;8401;52.528;13.340;2022-12-16T10:58:46;44.80;;;24.73;;
16577;SDS011;8401;52.528;13.340;2022-12-16T11:01:35;38.87;;;23.30;;
16577;SDS011;8401;52.528;13.340;2022-12-16T11:04:26;58.80;;;26.03;;
16577;SDS011;8401;52.528;13.340;2022-12-16T11:07:32;42.43;;;25.13;;
16577;SDS011;8401;52.528;13.340;2022-12-16T11:10:29;41.03;;;23.80;;
16577;SDS011;8401;52.528;13.340;2022-12-16T11:13:32;39.27;;;23.90;;
16577;SDS011;8401;52.528;13.340;2022-12-16T11:16:25;42.27;;;23.53;;
16577;SDS011;8401;52.528;13.340;2022-12-16T11:19:22;41.33;;;23.63;;
16577;SDS011;8401;52.528;13.340;2022-12-16T11:22:20;37.93;;;23.83;;
16577;SDS011;8401;52.528;13.340;2022-12-16T11:25:12;38.33;;;23.37;;
16577;SDS011;8401;52.528;13.340;2022-12-16T11:28:05;46.23;;;24.57;;
16577;SDS011;8401;52.528;13.340;2022-12-16T11:30:56;40.20;;;23.60;;
16577;SDS011;8401;52.528;13.340;2022-12-16T11:33:43;44.17;;;24.80;;
16577;SDS011;8401;52.528;13.340;2022-12-16T11:36:28;39.80;;;24.53;;
16577;SDS011;8401;52.528;13.340;2022-12-16T11:39:20;43.20;;;26.27;;
16577;SDS011;8401;52.528;13.340;2022-12-16T11:42:06;40.47;;;23.67;;
16577;SDS011;8401;52.528;13.340;2022-12-16T11:44:59;40.30;;;23.17;;
16577;SDS011;8401;52.528;13.340;2022-12-16T11:50:34;46.00;;;25.17;;
16577;SDS011;8401;52.528;13.340;2022-12-16T11:56:38;42.20;;;25.70;;
16577;SDS011;8401;52.528;13.340;2022-12-16T11:59:44;38.23;;;22.47;;
16577;SDS011;8401;52.528;13.340;2022-12-16T12:03:03;45.43;;;25.17;;
16577;SDS011;8401;52.528;13.340;2022-12-16T12:09:19;37.43;;;23.13;;
16577;SDS011;8401;52.528;13.340;2022-12-16T12:20:58;45.60;;;24.67;;
16577;SDS011;8401;52.528;13.340;2022-12-16T12:30:23;38.00;;;23.60;;
16577;SDS011;8401;52.528;13.340;2022-12-16T12:36:50;41.87;;;23.63;;
16577;SDS011;8401;52.528;13.340;2022-12-16T12:39:50;38.87;;;23.80;;
16577;SDS011;8401;52.528;13.340;2022-12-16T12:42:54;38.27;;;24.37;;
16577;SDS011;8401;52.528;13.340;2022-12-16T12:45:57;40.10;;;22.73;;
16577;SDS011;8401;52.528;13.340;2022-12-16T12:49:15;38.77;;;23.50;;
16577;SDS011;8401;52.528;13.340;2022-12-16T12:52:27;39.97;;;24.20;;
16577;SDS011;8401;52.528;13.340;2022-12-16T12:58:25;39.37;;;23.10;;
16577;SDS011;8401;52.528;13.340;2022-12-16T13:01:13;41.00;;;23.93;;
16577;SDS011;8401;52.528;13.340;2022-12-16T13:04:05;36.77;;;23.30;;
16577;SDS011;8401;52.528;13.340;2022-12-16T13:06:54;41.63;;;24.77;;
16577;SDS011;8401;52.528;13.340;2022-12-16T13:09:39;38.83;;;23.83;;
16577;SDS011;8401;52.528;13.340;2022-12-16T13:12:27;40.87;;;24.13;;
16577;SDS011;8401;52.528;13.340;2022-12-16T13:15:31;41.00;;;23.87;;
16577;SDS011;8401;52.528;13.340;2022-12-16T13:18:25;40.03;;;23.23;;
16577;SDS011;8401;52.528;13.340;2022-12-16T13:24:19;41.87;;;23.27;;
16577;SDS011;8401;52.528;13.340;2022-12-16T13:27:11;36.97;;;22.70;;
16577;SDS011;8401;52.528;13.340;2022-12-16T13:29:59;42.37;;;23.47;;
16577;SDS011;8401;52.528;13.340;2022-12-16T13:33:00;47.13;;;24.80;;
16577;SDS011;8401;52.528;13.340;2022-12-16T13:36:03;37.87;;;23.43;;
16577;SDS011;8401;52.528;13.340;2022-12-16T13:38:52;35.53;;;21.33;;
16577;SDS011;8401;52.528;13.340;2022-12-16T13:48:26;43.13;;;25.07;;
16577;SDS011;8401;52.528;13.340;2022-12-16T13:50:42;39.90;;;23.13;;
16577;SDS011;8401;52.528;13.340;2022-12-16T13:53:30;37.67;;;22.67;;
16577;SDS011;8401;52.528;13.340;2022-12-16T13:56:19;35.73;;;22.97;;
16577;SDS011;8401;52.528;13.340;2022-12-16T13:59:19;41.37;;;22.67;;
16577;SDS011;8401;52.528;13.340;2022-12-16T14:02:20;43.97;;;23.33;;
16577;SDS011;8401;52.528;13.340;2022-12-16T14:05:15;38.03;;;22.67;;
16577;SDS011;8401;52.528;13.340;2022-12-16T14:08:02;40.87;;;22.00;;
16577;SDS011;8401;52.528;13.340;2022-12-16T14:10:52;40.00;;;22.83;;
16577;SDS011;8401;52.528;13.340;2022-12-16T14:13:43;37.40;;;22.87;;
16577;SDS011;8401;52.528;13.340;2022-12-16T14:16:47;42.87;;;22.97;;
16577;SDS011;8401;52.528;13.340;2022-12-16T14:22:52;37.97;;;22.13;;
16577;SDS011;8401;52.528;13.340;2022-12-16T14:25:48;38.97;;;23.07;;
16577;SDS011;8401;52.528;13.340;2022-12-16T14:28:40;39.80;;;22.50;;
16577;SDS011;8401;52.528;13.340;2022-12-16T14:31:25;37.80;;;21.47;;
16577;SDS011;8401;52.528;13.340;2022-12-16T14:34:17;39.77;;;21.87;;
16577;SDS011;8401;52.528;13.340;2022-12-16T14:37:06;39.03;;;22.57;;
16577;SDS011;8401;52.528;13.340;2022-12-16T14:39:55;44.20;;;23.53;;
16577;SDS011;8401;52.528;13.340;2022-12-16T14:42:39;41.03;;;22.60;;
16577;SDS011;8401;52.528;13.340;2022-12-16T14:45:28;42.07;;;23.70;;
16577;SDS011;8401;52.528;13.340;2022-12-16T14:51:13;39.20;;;22.70;;
16577;SDS011;8401;52.528;13.340;2022-12-16T14:54:08;42.47;;;24.33;;
16577;SDS011;8401;52.528;13.340;2022-12-16T14:57:11;41.43;;;24.17;;
16577;SDS011;8401;52.528;13.340;2022-12-16T15:00:10;37.57;;;23.50;;
16577;SDS011;8401;52.528;13.340;2022-12-16T15:06:06;36.27;;;21.00;;
16577;SDS011;8401;52.528;13.340;2022-12-16T15:08:57;39.47;;;21.80;;
16577;SDS011;8401;52.528;13.340;2022-12-16T15:11:46;39.07;;;22.10;;
16577;SDS011;8401;52.528;13.340;2022-12-16T15:14:32;39.47;;;24.53;;
16577;SDS011;8401;52.528;13.340;2022-12-16T15:17:21;38.90;;;22.80;;
16577;SDS011;8401;52.528;13.340;2022-12-16T15:20:48;43.33;;;22.40;;
16577;SDS011;8401;52.528;13.340;2022-12-16T15:23:24;40.03;;;23.07;;
16577;SDS011;8401;52.528;13.340;2022-12-16T15:26:21;47.07;;;24.33;;
16577;SDS011;8401;52.528;13.340;2022-12-16T15:35:10;44.77;;;24.27;;
16577;SDS011;8401;52.528;13.340;2022-12-16T15:40:59;50.63;;;25.77;;
16577;SDS011;8401;52.528;13.340;2022-12-16T15:43:44;39.33;;;22.83;;
16577;SDS011;8401;52.528;13.340;2022-12-16T15:46:30;42.23;;;23.27;;
16577;SDS011;8401;52.528;13.340;2022-12-16T15:51:59;38.87;;;22.83;;
16577;SDS011;8401;52.528;13.340;2022-12-16T15:54:50;39.97;;;23.77;;
16577;SDS011;8401;52.528;13.340;2022-12-16T15:57:37;41.90;;;23.27;;
16577;SDS011;8401;52.528;13.340;2022-12-16T16:00:23;39.50;;;22.23;;
16577;SDS011;8401;52.528;13.340;2022-12-16T16:03:42;39.27;;;22.10;;
16577;SDS011;8401;52.528;13.340;2022-12-16T16:06:21;39.83;;;21.37;;
16577;SDS011;8401;52.528;13.340;2022-12-16T16:09:11;39.47;;;23.90;;
16577;SDS011;8401;52.528;13.340;2022-12-16T16:12:15;41.93;;;24.57;;
16577;SDS011;8401;52.528;13.340;2022-12-16T16:15:00;43.20;;;23.40;;
16577;SDS011;8401;52.528;13.340;2022-12-16T16:17:49;44.93;;;24.67;;
16577;SDS011;8401;52.528;13.340;2022-12-16T16:20:40;43.13;;;24.40;;
16577;SDS011;8401;52.528;13.340;2022-12-16T16:23:25;42.43;;;24.47;;
16577;SDS011;8401;52.528;13.340;2022-12-16T16:26:10;42.40;;;24.20;;
16577;SDS011;8401;52.528;13.340;2022-12-16T16:28:55;42.63;;;24.37;;
16577;SDS011;8401;52.528;13.340;2022-12-16T16:31:39;44.27;;;24.97;;
16577;SDS011;8401;52.528;13.340;2022-12-16T16:34:40;42.13;;;24.07;;
16577;SDS011;8401;52.528;13.340;2022-12-16T16:37:24;43.77;;;24.80;;
16577;SDS011;8401;52.528;13.340;2022-12-16T16:43:22;51.73;;;25.83;;
16577;SDS011;8401;52.528;13.340;2022-12-16T16:46:16;41.50;;;25.27;;
16577;SDS011;8401;52.528;13.340;2022-12-16T16:49:07;44.63;;;24.80;;
16577;SDS011;8401;52.528;13.340;2022-12-16T16:51:57;43.57;;;24.83;;
16577;SDS011;8401;52.528;13.340;2022-12-16T16:54:41;41.47;;;24.47;;
16577;SDS011;8401;52.528;13.340;2022-12-16T16:57:26;43.40;;;23.67;;
16577;SDS011;8401;52.528;13.340;2022-12-16T17:00:15;44.50;;;24.63;;
16577;SDS011;8401;52.528;13.340;2022-12-16T17:02:59;39.90;;;25.37;;
16577;SDS011;8401;52.528;13.340;2022-12-16T17:05:43;44.87;;;26.33;;
16577;SDS011;8401;52.528;13.340;2022-12-16T17:08:27;48.27;;;26.10;;
16577;SDS011;8401;52.528;13.340;2022-12-16T17:11:14;46.47;;;25.70;;
16577;SDS011;8401;52.528;13.340;2022-12-16T17:14:03;41.60;;;24.20;;
16577;SDS011;8401;52.528;13.340;2022-12-16T17:16:48;44.57;;;25.37;;
16577;SDS011;8401;52.528;13.340;2022-12-16T17:19:32;43.43;;;24.17;;
16577;SDS011;8401;52.528;13.340;2022-12-16T17:22:16;46.87;;;25.00;;
16577;SDS011;8401;52.528;13.340;2022-12-16T17:25:00;43.43;;;24.60;;
16577;SDS011;8401;52.528;13.340;2022-12-16T17:27:44;43.97;;;25.23;;
16577;SDS011;8401;52.528;13.340;2022-12-16T17:30:29;44.17;;;26.80;;
16577;SDS011;8401;52.528;13.340;2022-12-16T17:33:15;49.00;;;26.63;;
16577;SDS011;8401;52.528;13.340;2022-12-16T17:35:59;48.00;;;24.97;;
16577;SDS011;8401;52.528;13.340;2022-12-16T17:38:44;48.93;;;26.87;;
16577;SDS011;8401;52.528;13.340;2022-12-16T17:41:30;47.40;;;26.17;;
16577;SDS011;8401;52.528;13.340;2022-12-16T17:44:15;54.73;;;29.43;;
16577;SDS011;8401;52.528;13.340;2022-12-16T17:46:59;62.57;;;31.03;;
16577;SDS011;8401;52.528;13.340;2022-12-16T17:49:44;52.23;;;29.63;;
16577;SDS011;8401;52.528;13.340;2022-12-16T17:52:28;51.97;;;28.47;;